createdAt,value
2023-02-15T00:01:48.176Z,22.73
2023-02-15T00:04:16.102Z,22.53
2023-02-15T00:06:42.769Z,21.67
2023-02-15T00:09:11.089Z,22.33
2023-02-15T00:11:41.156Z,21.95
2023-02-15T00:14:13.142Z,19.33
2023-02-15T00:16:41.356Z,21.93
2023-02-15T00:19:08.848Z,28.52
2023-02-15T00:21:36.569Z,22.38
2023-02-15T00:24:05.159Z,25.17
2023-02-15T00:26:31.924Z,21.05
2023-02-15T00:28:59.961Z,24.57
2023-02-15T00:31:27.657Z,20.10
2023-02-15T00:33:54.145Z,21.88
2023-02-15T00:36:20.786Z,23.80
2023-02-15T00:38:47.322Z,22.40
2023-02-15T00:41:13.812Z,22.70
2023-02-15T00:43:40.216Z,26.95
2023-02-15T00:46:07.074Z,25.35
2023-02-15T00:48:33.752Z,18.65
2023-02-15T00:51:02.009Z,22.38
2023-02-15T00:53:29.245Z,21.23
2023-02-15T00:55:56.114Z,24.50
2023-02-15T00:58:22.528Z,30.27
2023-02-15T01:00:49.523Z,26.63
2023-02-15T01:03:18.309Z,26.63
2023-02-15T01:05:45.351Z,28.23
2023-02-15T01:08:11.914Z,24.75
2023-02-15T01:10:38.600Z,36.85
2023-02-15T01:13:05.309Z,25.02
2023-02-15T01:15:31.828Z,24.45
2023-02-15T01:17:58.284Z,29.70
2023-02-15T01:20:28.089Z,32.55
2023-02-15T01:22:55.561Z,26.58
2023-02-15T01:25:24.392Z,36.47
2023-02-15T01:27:51.064Z,30.00
2023-02-15T01:30:18.348Z,32.87
2023-02-15T01:32:45.132Z,28.67
2023-02-15T01:35:12.019Z,26.77
2023-02-15T01:37:38.703Z,27.42
2023-02-15T01:40:09.056Z,28.13
2023-02-15T01:42:35.844Z,25.80
2023-02-15T01:45:19.076Z,27.40
2023-02-15T01:48:03.030Z,27.77
2023-02-15T01:50:37.801Z,28.45
2023-02-15T01:53:19.623Z,26.63
2023-02-15T01:56:00.567Z,23.83
2023-02-15T01:58:30.215Z,35.85
2023-02-15T02:01:01.309Z,24.85
2023-02-15T02:03:52.876Z,29.30
2023-02-15T02:06:21.714Z,26.60
2023-02-15T02:08:49.372Z,27.17
2023-02-15T02:11:16.448Z,29.20
2023-02-15T02:13:45.537Z,31.00
2023-02-15T02:16:20.992Z,34.55
2023-02-15T02:19:02.453Z,34.80
2023-02-15T02:21:48.910Z,38.87
2023-02-15T02:25:04.183Z,31.00
2023-02-15T02:27:42.376Z,29.88
2023-02-15T02:30:30.826Z,26.77
2023-02-15T02:33:12.954Z,28.00
2023-02-15T02:35:47.585Z,29.13
2023-02-15T02:38:33.608Z,24.42
2023-02-15T02:41:39.237Z,26.48
2023-02-15T02:44:13.915Z,24.92
2023-02-15T02:46:49.241Z,28.02
2023-02-15T02:49:15.734Z,23.97
2023-02-15T02:51:42.409Z,28.02
2023-02-15T02:54:09.980Z,27.73
2023-02-15T02:56:45.774Z,27.20
2023-02-15T02:59:19.982Z,26.73
2023-02-15T03:02:15.023Z,20.00
2023-02-15T03:05:04.189Z,23.77
2023-02-15T03:07:32.495Z,28.58
2023-02-15T03:10:01.742Z,23.75
2023-02-15T03:12:30.970Z,22.52
2023-02-15T03:15:06.360Z,23.33
2023-02-15T03:17:36.772Z,22.25
2023-02-15T03:20:11.430Z,28.20
2023-02-15T03:22:44.385Z,22.10
2023-02-15T03:25:13.884Z,22.02
2023-02-15T03:27:45.998Z,20.33
2023-02-15T03:30:14.650Z,27.23
2023-02-15T03:32:42.407Z,24.83
2023-02-15T03:35:09.255Z,23.08
2023-02-15T03:37:45.241Z,25.35
2023-02-15T03:40:45.775Z,24.03
2023-02-15T03:43:22.409Z,20.60
2023-02-15T03:45:56.745Z,24.35
2023-02-15T03:48:34.049Z,23.27
2023-02-15T03:51:27.988Z,22.92
2023-02-15T03:53:56.344Z,34.70
2023-02-15T03:56:22.924Z,20.75
2023-02-15T03:59:08.169Z,27.13
2023-02-15T04:01:57.974Z,29.30
2023-02-15T04:04:31.516Z,19.73
2023-02-15T04:06:57.891Z,19.97
2023-02-15T04:09:43.077Z,23.00
2023-02-15T04:12:09.588Z,26.75
2023-02-15T04:14:54.906Z,24.67
2023-02-15T04:17:21.556Z,20.70
2023-02-15T04:20:06.789Z,19.80
2023-02-15T04:22:52.210Z,22.27
2023-02-15T04:25:18.838Z,19.33
2023-02-15T04:27:49.050Z,21.10
2023-02-15T04:30:17.398Z,22.35
2023-02-15T04:32:44.028Z,19.90
2023-02-15T04:35:10.745Z,18.92
2023-02-15T04:37:37.259Z,18.80
2023-02-15T04:40:07.136Z,17.77
2023-02-15T04:42:33.657Z,21.38
2023-02-15T04:45:00.129Z,19.97
2023-02-15T04:47:26.833Z,19.17
2023-02-15T04:49:53.351Z,23.75
2023-02-15T04:52:19.957Z,25.60
2023-02-15T04:54:46.654Z,24.08
2023-02-15T04:57:14.308Z,21.20
2023-02-15T04:59:40.852Z,22.27
2023-02-15T05:02:07.791Z,18.02
2023-02-15T05:04:34.354Z,20.92
2023-02-15T05:07:00.996Z,25.15
2023-02-15T05:09:27.818Z,21.87
2023-02-15T05:11:54.309Z,23.38
2023-02-15T05:14:20.820Z,21.85
2023-02-15T05:16:47.264Z,20.33
2023-02-15T05:19:13.867Z,18.92
2023-02-15T05:21:40.327Z,19.43
2023-02-15T05:24:26.849Z,18.38
2023-02-15T05:27:11.716Z,21.25
2023-02-15T05:29:38.274Z,19.63
2023-02-15T05:32:05.311Z,27.63
2023-02-15T05:34:31.948Z,19.73
2023-02-15T05:36:58.439Z,22.45
2023-02-15T05:39:25.050Z,17.80
2023-02-15T05:41:51.610Z,23.70
2023-02-15T05:44:18.166Z,18.80
2023-02-15T05:46:44.579Z,20.20
2023-02-15T05:49:11.072Z,19.95
2023-02-15T05:51:37.499Z,21.25
2023-02-15T05:54:04.103Z,16.88
2023-02-15T05:56:30.760Z,21.52
2023-02-15T05:58:57.168Z,24.00
2023-02-15T06:01:24.274Z,16.30
2023-02-15T06:03:51.003Z,19.50
2023-02-15T06:06:17.685Z,22.95
2023-02-15T06:08:44.527Z,17.40
2023-02-15T06:11:11.765Z,20.40
2023-02-15T06:13:39.137Z,20.10
2023-02-15T06:16:12.349Z,22.38
2023-02-15T06:18:38.868Z,22.85
2023-02-15T06:21:05.480Z,17.88
2023-02-15T06:23:31.962Z,20.50
2023-02-15T06:25:58.602Z,19.35
2023-02-15T06:28:26.620Z,22.15
2023-02-15T06:30:53.394Z,25.27
2023-02-15T06:33:19.845Z,22.15
2023-02-15T06:35:47.502Z,23.53
2023-02-15T06:38:14.456Z,22.17
2023-02-15T06:40:41.028Z,20.60
2023-02-15T06:43:07.512Z,19.60
2023-02-15T06:45:33.897Z,18.50
2023-02-15T06:48:00.463Z,22.50
2023-02-15T06:50:27.042Z,20.77
2023-02-15T06:52:57.945Z,18.90
2023-02-15T06:55:32.138Z,25.33
2023-02-15T06:57:58.621Z,21.30
2023-02-15T07:00:30.487Z,35.93
2023-02-15T07:02:58.772Z,21.65
2023-02-15T07:05:31.624Z,28.17
2023-02-15T07:08:01.475Z,17.52
2023-02-15T07:10:29.014Z,25.40
2023-02-15T07:12:55.664Z,15.90
2023-02-15T07:15:22.148Z,17.73
2023-02-15T07:17:49.301Z,19.52
2023-02-15T07:20:18.916Z,19.95
2023-02-15T07:22:45.956Z,21.55
2023-02-15T07:25:13.718Z,21.33
2023-02-15T07:27:41.087Z,23.48
2023-02-15T07:30:12.573Z,15.90
2023-02-15T07:32:59.219Z,19.52
2023-02-15T07:35:26.050Z,22.40
2023-02-15T07:37:54.073Z,19.07
2023-02-15T07:40:20.714Z,19.95
2023-02-15T07:42:47.253Z,22.00
2023-02-15T07:45:16.858Z,20.88
2023-02-15T07:47:43.403Z,22.63
2023-02-15T07:50:10.136Z,20.07
2023-02-15T07:52:36.677Z,17.20
2023-02-15T07:55:03.311Z,23.45
2023-02-15T07:57:29.698Z,30.45
2023-02-15T07:59:56.269Z,24.13
2023-02-15T08:02:23.040Z,24.80
2023-02-15T08:04:49.499Z,21.30
2023-02-15T08:07:16.021Z,25.25
2023-02-15T08:09:42.473Z,30.65
2023-02-15T08:12:09.057Z,23.38
2023-02-15T08:14:35.545Z,25.10
2023-02-15T08:17:06.109Z,22.73
2023-02-15T08:19:34.022Z,19.90
2023-02-15T08:22:02.974Z,22.75
2023-02-15T08:24:31.908Z,24.33
2023-02-15T08:26:59.360Z,24.77
2023-02-15T08:29:28.802Z,21.40
2023-02-15T08:32:03.319Z,24.70
2023-02-15T08:34:31.941Z,26.05
2023-02-15T08:36:58.522Z,25.35
2023-02-15T08:39:25.234Z,21.23
2023-02-15T08:41:51.875Z,25.75
2023-02-15T08:44:19.784Z,25.67
2023-02-15T08:46:47.592Z,28.60
2023-02-15T08:49:17.822Z,27.90
2023-02-15T08:51:44.333Z,24.63
2023-02-15T08:54:14.195Z,25.08
2023-02-15T08:56:42.801Z,21.23
2023-02-15T08:59:16.057Z,26.08
2023-02-15T09:01:43.533Z,27.63
2023-02-15T09:04:11.065Z,28.47
2023-02-15T09:06:39.155Z,28.90
2023-02-15T09:09:06.002Z,26.67
2023-02-15T09:11:36.440Z,29.30
2023-02-15T09:14:10.254Z,30.88
2023-02-15T09:16:39.168Z,29.50
2023-02-15T09:19:06.367Z,27.88
2023-02-15T09:21:35.284Z,30.73
2023-02-15T09:24:05.563Z,31.15
2023-02-15T09:26:34.822Z,29.42
2023-02-15T09:29:02.722Z,29.37
2023-02-15T09:31:34.939Z,33.67
2023-02-15T09:34:02.628Z,29.73
2023-02-15T09:36:32.102Z,31.55
2023-02-15T09:39:09.738Z,30.33
2023-02-15T09:42:00.608Z,31.73
2023-02-15T09:44:55.267Z,35.05
2023-02-15T09:47:40.202Z,35.05
2023-02-15T09:50:32.474Z,31.30
2023-02-15T09:52:59.009Z,31.00
2023-02-15T09:55:49.345Z,33.27
2023-02-15T09:58:15.719Z,34.72
2023-02-15T10:01:09.955Z,30.60
2023-02-15T10:04:16.664Z,35.03
2023-02-15T10:07:21.163Z,34.90
2023-02-15T10:09:57.966Z,34.57
2023-02-15T10:13:05.730Z,34.80
2023-02-15T10:15:51.943Z,37.90
2023-02-15T10:18:36.926Z,30.67
2023-02-15T10:21:25.979Z,31.58
2023-02-15T10:24:23.515Z,36.27
2023-02-15T10:26:50.472Z,33.83
2023-02-15T10:29:36.220Z,32.40
2023-02-15T10:32:24.423Z,34.22
2023-02-15T10:35:04.728Z,32.13
2023-02-15T10:37:42.597Z,33.53
2023-02-15T10:40:17.560Z,29.70
2023-02-15T10:43:14.130Z,35.60
2023-02-15T10:45:58.418Z,34.33
2023-02-15T10:48:43.259Z,30.95
2023-02-15T10:51:24.169Z,32.83
2023-02-15T10:54:04.868Z,32.33
2023-02-15T10:56:41.413Z,30.65
2023-02-15T10:59:45.351Z,30.90
2023-02-15T11:02:28.590Z,32.20
2023-02-15T11:05:04.179Z,30.30
2023-02-15T11:07:39.277Z,32.42
2023-02-15T11:10:16.769Z,33.88
2023-02-15T11:12:46.987Z,33.30
2023-02-15T11:15:35.518Z,30.45
2023-02-15T11:18:24.822Z,37.37
2023-02-15T11:20:58.869Z,31.63
2023-02-15T11:23:28.032Z,29.67
2023-02-15T11:26:11.248Z,34.20
2023-02-15T11:28:48.493Z,30.08
2023-02-15T11:31:19.482Z,31.10
2023-02-15T11:33:52.586Z,33.20
2023-02-15T11:36:41.324Z,30.67
2023-02-15T11:39:15.001Z,30.90
2023-02-15T11:42:05.631Z,34.30
2023-02-15T11:44:44.061Z,32.87
2023-02-15T11:47:14.857Z,38.17
2023-02-15T11:49:41.400Z,32.20
2023-02-15T11:52:12.961Z,30.10
2023-02-15T11:54:46.347Z,31.33
2023-02-15T11:57:29.268Z,34.33
2023-02-15T12:00:15.762Z,36.47
2023-02-15T12:02:49.073Z,32.85
2023-02-15T12:05:23.068Z,31.58
2023-02-15T12:08:02.628Z,34.35
2023-02-15T12:10:34.876Z,37.77
2023-02-15T12:13:16.409Z,32.60
2023-02-15T12:15:47.565Z,32.88
2023-02-15T12:18:33.597Z,34.13
2023-02-15T12:21:08.820Z,30.25
2023-02-15T12:23:41.065Z,35.33
2023-02-15T12:26:07.598Z,33.72
2023-02-15T12:28:44.113Z,31.92
2023-02-15T12:31:23.235Z,34.83
2023-02-15T12:33:53.393Z,36.58
2023-02-15T12:36:23.620Z,32.63
2023-02-15T12:39:20.492Z,31.75
2023-02-15T12:41:59.945Z,31.90
2023-02-15T12:44:30.059Z,31.17
2023-02-15T12:47:18.785Z,35.25
2023-02-15T12:50:04.424Z,36.93
2023-02-15T12:52:31.358Z,35.10
2023-02-15T12:55:31.855Z,37.03
2023-02-15T12:58:19.063Z,37.90
2023-02-15T13:00:46.786Z,30.50
2023-02-15T13:03:22.656Z,32.90
2023-02-15T13:05:52.703Z,32.13
2023-02-15T13:08:22.625Z,35.20
2023-02-15T13:11:28.692Z,37.55
2023-02-15T13:14:01.480Z,35.75
2023-02-15T13:16:34.636Z,38.00
2023-02-15T13:19:07.343Z,36.33
2023-02-15T13:21:38.186Z,39.78
2023-02-15T13:24:19.328Z,35.15
2023-02-15T13:26:48.187Z,33.38
2023-02-15T13:29:37.128Z,38.93
2023-02-15T13:32:37.349Z,33.58
2023-02-15T13:35:08.269Z,36.67
2023-02-15T13:37:34.922Z,33.90
2023-02-15T13:40:23.136Z,34.72
2023-02-15T13:43:26.784Z,37.17
2023-02-15T13:46:08.174Z,40.55
2023-02-15T13:49:00.445Z,35.40
2023-02-15T13:51:33.396Z,41.15
2023-02-15T13:54:26.175Z,32.08
2023-02-15T13:57:02.079Z,34.23
2023-02-15T13:59:42.385Z,38.30
2023-02-15T14:02:11.825Z,34.88
2023-02-15T14:04:38.359Z,33.42
2023-02-15T14:07:43.941Z,39.08
2023-02-15T14:10:55.979Z,35.40
2023-02-15T14:13:48.810Z,35.08
2023-02-15T14:16:29.937Z,39.20
2023-02-15T14:19:24.334Z,34.63
2023-02-15T14:22:08.946Z,35.83
2023-02-15T14:24:45.646Z,37.93
2023-02-15T14:27:29.057Z,38.50
2023-02-15T14:30:01.374Z,38.47
2023-02-15T14:32:39.508Z,34.70
2023-02-15T14:35:15.136Z,36.63
2023-02-15T14:37:50.914Z,41.80
2023-02-15T14:40:54.569Z,40.40
2023-02-15T14:43:27.281Z,39.03
2023-02-15T14:46:20.047Z,37.30
2023-02-15T14:48:58.471Z,38.10
2023-02-15T14:51:50.901Z,39.43
2023-02-15T14:54:17.374Z,36.90
2023-02-15T14:57:07.511Z,36.22
2023-02-15T15:00:00.432Z,38.83
2023-02-15T15:02:53.489Z,42.13
2023-02-15T15:05:33.401Z,41.70
2023-02-15T15:08:02.278Z,47.60
2023-02-15T15:10:44.482Z,40.45
2023-02-15T15:13:32.950Z,38.40
2023-02-15T15:16:26.200Z,34.67
2023-02-15T15:18:52.970Z,37.37
2023-02-15T15:21:47.831Z,39.95
2023-02-15T15:24:39.149Z,36.30
2023-02-15T15:27:39.566Z,39.05
2023-02-15T15:30:15.378Z,43.13
2023-02-15T15:32:51.156Z,37.07
2023-02-15T15:35:37.760Z,34.65
2023-02-15T15:38:22.493Z,39.58
2023-02-15T15:41:04.281Z,37.80
2023-02-15T15:43:49.237Z,35.88
2023-02-15T15:46:32.377Z,39.33
2023-02-15T15:49:31.810Z,34.47
2023-02-15T15:52:02.579Z,33.47
2023-02-15T15:54:29.641Z,38.15
2023-02-15T15:57:07.558Z,37.38
2023-02-15T15:59:35.452Z,38.13
2023-02-15T16:02:14.205Z,41.70
2023-02-15T16:04:40.648Z,38.35
2023-02-15T16:07:19.325Z,39.55
2023-02-15T16:09:54.797Z,39.33
2023-02-15T16:12:23.709Z,36.40
2023-02-15T16:14:52.732Z,36.38
2023-02-15T16:17:23.454Z,35.38
2023-02-15T16:19:51.305Z,44.97
2023-02-15T16:22:25.824Z,45.60
2023-02-15T16:25:04.521Z,41.63
2023-02-15T16:27:42.993Z,40.38
2023-02-15T16:30:20.134Z,37.40
2023-02-15T16:32:46.843Z,37.25
2023-02-15T16:35:18.390Z,36.63
2023-02-15T16:37:44.965Z,40.63
2023-02-15T16:40:28.849Z,38.63
2023-02-15T16:42:58.595Z,38.53
2023-02-15T16:45:27.655Z,39.55
2023-02-15T16:47:59.254Z,42.80
2023-02-15T16:50:32.865Z,43.57
2023-02-15T16:53:00.911Z,40.08
2023-02-15T16:55:36.265Z,39.95
2023-02-15T16:58:05.412Z,38.42
2023-02-15T17:00:37.836Z,39.13
2023-02-15T17:03:07.444Z,40.93
2023-02-15T17:05:52.699Z,44.75
2023-02-15T17:08:20.754Z,50.20
2023-02-15T17:11:05.884Z,40.97
2023-02-15T17:13:32.646Z,38.20
2023-02-15T17:15:59.080Z,42.00
2023-02-15T17:18:28.917Z,41.38
2023-02-15T17:20:59.147Z,49.30
2023-02-15T17:23:41.463Z,42.28
2023-02-15T17:26:20.250Z,40.58
2023-02-15T17:28:50.184Z,41.53
2023-02-15T17:31:19.152Z,44.63
2023-02-15T17:33:46.369Z,43.28
2023-02-15T17:36:23.460Z,49.50
2023-02-15T17:38:59.112Z,45.72
2023-02-15T17:41:35.208Z,46.60
2023-02-15T17:44:05.215Z,50.13
2023-02-15T17:46:38.072Z,44.08
2023-02-15T17:49:05.533Z,50.63
2023-02-15T17:51:35.841Z,47.50
2023-02-15T17:54:22.256Z,44.47
2023-02-15T17:56:48.702Z,42.55
2023-02-15T17:59:15.249Z,42.92
2023-02-15T18:02:09.551Z,50.88
2023-02-15T18:04:56.233Z,47.17
2023-02-15T18:07:41.157Z,51.17
2023-02-15T18:10:35.070Z,51.22
2023-02-15T18:13:01.569Z,51.75
2023-02-15T18:15:28.344Z,50.70
2023-02-15T18:17:55.319Z,48.13
2023-02-15T18:20:28.120Z,48.97
2023-02-15T18:22:54.726Z,52.92
2023-02-15T18:25:24.324Z,54.55
2023-02-15T18:27:52.790Z,49.28
2023-02-15T18:30:23.863Z,51.95
2023-02-15T18:32:54.151Z,52.93
2023-02-15T18:35:23.018Z,47.70
2023-02-15T18:37:50.456Z,57.10
2023-02-15T18:40:19.291Z,43.03
2023-02-15T18:42:49.640Z,46.05
2023-02-15T18:45:21.880Z,42.63
2023-02-15T18:47:48.861Z,43.92
2023-02-15T18:50:17.703Z,47.33
2023-02-15T18:52:47.256Z,45.60
2023-02-15T18:55:17.675Z,42.22
2023-02-15T18:57:45.841Z,48.20
2023-02-15T19:00:21.760Z,49.75
2023-02-15T19:02:49.000Z,54.92
2023-02-15T19:05:16.274Z,46.53
2023-02-15T19:07:45.372Z,49.25
2023-02-15T19:10:17.393Z,42.17
2023-02-15T19:12:44.472Z,53.80
2023-02-15T19:15:19.145Z,49.75
2023-02-15T19:17:45.705Z,52.50
2023-02-15T19:20:19.710Z,48.20
2023-02-15T19:22:51.328Z,43.00
2023-02-15T19:25:39.722Z,43.75
2023-02-15T19:28:14.910Z,49.28
2023-02-15T19:30:41.381Z,49.95
2023-02-15T19:33:20.223Z,41.80
2023-02-15T19:35:52.485Z,52.33
2023-02-15T19:38:22.632Z,44.95
2023-02-15T19:40:49.144Z,53.30
2023-02-15T19:43:18.767Z,52.00
2023-02-15T19:45:45.871Z,60.00
2023-02-15T19:48:16.870Z,53.27
2023-02-15T19:50:46.421Z,54.17
2023-02-15T19:53:31.175Z,49.95
2023-02-15T19:55:57.621Z,56.80
2023-02-15T19:58:24.461Z,46.85
2023-02-15T20:00:51.895Z,43.53
2023-02-15T20:03:18.724Z,33.85
2023-02-15T20:05:45.401Z,42.78
2023-02-15T20:08:17.390Z,45.95
2023-02-15T20:10:45.320Z,44.25
2023-02-15T20:13:16.495Z,54.90
2023-02-15T20:15:43.848Z,47.50
2023-02-15T20:18:10.366Z,44.92
2023-02-15T20:20:54.810Z,49.15
2023-02-15T20:23:30.894Z,50.45
2023-02-15T20:25:59.656Z,61.07
2023-02-15T20:28:29.354Z,51.92
2023-02-15T20:30:56.147Z,54.30
2023-02-15T20:33:23.452Z,48.90
2023-02-15T20:35:50.832Z,47.70
2023-02-15T20:38:28.119Z,48.00
2023-02-15T20:41:15.527Z,45.78
2023-02-15T20:43:42.194Z,46.00
2023-02-15T20:46:09.087Z,50.97
2023-02-15T20:48:35.953Z,46.20
2023-02-15T20:51:03.039Z,45.50
2023-02-15T20:53:30.015Z,44.63
2023-02-15T20:55:56.905Z,49.15
2023-02-15T20:58:27.091Z,52.80
2023-02-15T21:00:55.736Z,51.40
2023-02-15T21:03:26.406Z,47.37
2023-02-15T21:05:53.134Z,48.13
2023-02-15T21:08:22.037Z,48.60
2023-02-15T21:10:51.266Z,41.97
2023-02-15T21:13:27.659Z,39.47
2023-02-15T21:15:55.648Z,44.03
2023-02-15T21:18:25.932Z,43.72
2023-02-15T21:20:55.410Z,49.80
2023-02-15T21:23:25.898Z,47.05
2023-02-15T21:25:54.390Z,52.03
2023-02-15T21:28:24.880Z,43.17
2023-02-15T21:30:51.896Z,46.03
2023-02-15T21:33:18.633Z,42.08
2023-02-15T21:35:48.944Z,48.80
2023-02-15T21:38:18.281Z,42.75
2023-02-15T21:40:45.157Z,47.33
2023-02-15T21:43:36.598Z,39.42
2023-02-15T21:46:31.576Z,45.58
2023-02-15T21:48:58.003Z,39.65
2023-02-15T21:51:43.814Z,46.25
2023-02-15T21:54:13.444Z,42.00
2023-02-15T21:56:42.037Z,47.55
2023-02-15T21:59:12.903Z,48.05
2023-02-15T22:01:42.214Z,46.67
2023-02-15T22:04:14.414Z,41.47
2023-02-15T22:06:41.493Z,49.23
2023-02-15T22:09:16.588Z,40.85
2023-02-15T22:11:43.762Z,43.83
2023-02-15T22:14:30.966Z,45.47
2023-02-15T22:16:57.672Z,48.88
2023-02-15T22:19:24.017Z,43.37
2023-02-15T22:21:50.427Z,48.20
2023-02-15T22:24:16.965Z,42.30
2023-02-15T22:26:43.484Z,47.03
2023-02-15T22:29:16.445Z,45.05
2023-02-15T22:31:51.000Z,50.47
2023-02-15T22:34:29.881Z,43.22
2023-02-15T22:36:56.758Z,40.83
2023-02-15T22:39:24.836Z,45.80
2023-02-15T22:41:52.698Z,43.95
2023-02-15T22:44:30.003Z,48.57
2023-02-15T22:46:56.518Z,45.25
2023-02-15T22:49:23.114Z,47.75
2023-02-15T22:51:50.714Z,51.33
2023-02-15T22:54:18.778Z,47.03
2023-02-15T22:56:50.070Z,47.13
2023-02-15T22:59:24.648Z,47.20
2023-02-15T23:01:51.208Z,40.70
2023-02-15T23:04:24.034Z,48.63
2023-02-15T23:06:51.509Z,42.17
2023-02-15T23:09:17.888Z,47.60
2023-02-15T23:11:45.889Z,45.45
2023-02-15T23:14:36.625Z,47.40
2023-02-15T23:17:03.297Z,46.30
2023-02-15T23:19:29.686Z,48.67
2023-02-15T23:21:56.322Z,45.30
2023-02-15T23:24:31.218Z,41.63
2023-02-15T23:27:17.588Z,43.50
2023-02-15T23:29:43.973Z,44.28
2023-02-15T23:32:13.326Z,44.83
2023-02-15T23:34:40.144Z,44.47
2023-02-15T23:37:08.617Z,47.13
2023-02-15T23:39:53.676Z,49.70
2023-02-15T23:42:23.437Z,47.72
2023-02-15T23:44:49.882Z,51.53
2023-02-15T23:47:42.486Z,46.37
2023-02-15T23:50:21.096Z,43.92
2023-02-15T23:52:48.213Z,47.72
2023-02-15T23:55:15.813Z,45.92
2023-02-15T23:57:43.129Z,48.67
